createdAt,value
2023-04-03T00:02:50.924Z,67.76
2023-04-03T00:07:53.284Z,68.36
2023-04-03T00:12:55.249Z,68.73
2023-04-03T00:17:57.036Z,68.66
2023-04-03T00:22:59.039Z,68.98
2023-04-03T00:28:01.015Z,68.54
2023-04-03T00:33:03.159Z,68.70
2023-04-03T00:38:05.497Z,69.19
2023-04-03T00:43:22.342Z,69.31
2023-04-03T00:48:30.384Z,69.00
2023-04-03T00:53:38.189Z,68.65
2023-04-03T00:58:49.896Z,68.82
2023-04-03T01:03:52.245Z,69.23
2023-04-03T01:08:55.778Z,68.99
2023-04-03T01:13:57.729Z,68.98
2023-04-03T01:19:03.809Z,68.76
2023-04-03T01:24:32.639Z,68.92
2023-04-03T01:29:34.367Z,69.43
2023-04-03T01:34:36.134Z,69.65
2023-04-03T01:39:38.346Z,69.78
2023-04-03T01:44:40.589Z,70.01
2023-04-03T01:49:42.476Z,70.16
2023-04-03T01:54:44.586Z,70.31
2023-04-03T01:59:46.459Z,70.01
2023-04-03T02:04:48.307Z,70.18
2023-04-03T02:09:50.208Z,70.54
2023-04-03T02:14:52.187Z,70.54
2023-04-03T02:19:53.856Z,70.95
2023-04-03T02:24:55.620Z,70.97
2023-04-03T02:29:57.333Z,71.15
2023-04-03T02:34:59.176Z,71.07
2023-04-03T02:40:01.533Z,70.89
2023-04-03T02:45:04.873Z,71.05
2023-04-03T02:50:06.825Z,71.04
2023-04-03T02:55:09.044Z,71.02
2023-04-03T03:00:11.460Z,70.85
2023-04-03T03:05:13.558Z,70.79
2023-04-03T03:10:15.561Z,70.40
2023-04-03T03:15:18.247Z,70.81
2023-04-03T03:20:20.334Z,71.34
2023-04-03T03:25:22.085Z,71.09
2023-04-03T03:30:23.886Z,71.00
2023-04-03T03:35:25.673Z,71.34
2023-04-03T03:40:27.633Z,71.37
2023-04-03T03:45:29.608Z,71.83
2023-04-03T03:50:32.430Z,71.93
2023-04-03T03:55:34.315Z,72.06
2023-04-03T04:00:36.969Z,72.45
2023-04-03T04:05:39.384Z,72.58
2023-04-03T04:10:41.679Z,72.42
2023-04-03T04:15:44.615Z,72.65
2023-04-03T04:20:47.174Z,72.36
2023-04-03T04:25:51.557Z,72.25
2023-04-03T04:30:54.187Z,72.25
2023-04-03T04:35:57.995Z,72.14
2023-04-03T04:41:00.802Z,72.50
2023-04-03T04:46:11.404Z,72.33
2023-04-03T04:51:18.367Z,73.00
2023-04-03T04:56:20.532Z,72.51
2023-04-03T05:01:23.023Z,72.42
2023-04-03T05:06:37.294Z,72.56
2023-04-03T05:11:43.956Z,72.71
2023-04-03T05:16:50.231Z,73.01
2023-04-03T05:21:53.796Z,72.87
2023-04-03T05:26:55.899Z,72.86
2023-04-03T05:31:58.218Z,73.01
2023-04-03T05:37:01.436Z,72.94
2023-04-03T05:42:03.848Z,73.28
2023-04-03T05:47:06.191Z,73.10
2023-04-03T05:52:23.478Z,72.70
2023-04-03T05:57:26.304Z,72.78
2023-04-03T06:02:28.303Z,72.47
2023-04-03T06:07:30.297Z,72.55
2023-04-03T06:12:32.156Z,72.77
2023-04-03T06:17:34.030Z,72.46
2023-04-03T06:22:36.357Z,72.42
2023-04-03T06:27:38.234Z,73.61
2023-04-03T06:32:40.279Z,73.15
2023-04-03T06:37:41.942Z,72.25
2023-04-03T06:42:43.944Z,72.12
2023-04-03T06:47:47.809Z,72.13
2023-04-03T06:52:49.707Z,71.15
2023-04-03T06:57:51.713Z,71.24
2023-04-03T07:02:53.591Z,71.92
2023-04-03T07:07:55.441Z,72.18
2023-04-03T07:12:57.157Z,72.23
2023-04-03T07:17:59.309Z,71.85
2023-04-03T07:23:04.198Z,71.06
2023-04-03T07:28:06.170Z,71.86
2023-04-03T07:33:07.993Z,70.76
2023-04-03T07:38:10.840Z,70.97
2023-04-03T07:43:12.380Z,70.48
2023-04-03T07:48:14.425Z,70.23
2023-04-03T07:53:16.492Z,69.98
2023-04-03T07:58:19.325Z,69.95
2023-04-03T08:03:21.224Z,69.51
2023-04-03T08:08:23.922Z,69.68
2023-04-03T08:13:25.645Z,69.85
2023-04-03T08:18:27.776Z,67.89
2023-04-03T08:23:29.575Z,68.20
2023-04-03T08:28:31.293Z,68.44
2023-04-03T08:33:35.011Z,68.73
2023-04-03T08:38:38.247Z,69.55
2023-04-03T08:43:53.248Z,69.23
2023-04-03T08:48:55.890Z,68.97
2023-04-03T08:54:05.600Z,68.86
2023-04-03T08:59:25.771Z,67.89
2023-04-03T09:04:28.884Z,67.92
2023-04-03T09:09:39.553Z,66.83
2023-04-03T09:15:07.087Z,66.21
2023-04-03T09:20:18.977Z,65.33
2023-04-03T09:25:38.265Z,65.03
2023-04-03T09:30:40.233Z,63.50
2023-04-03T09:35:48.130Z,63.75
2023-04-03T09:41:18.064Z,63.68
2023-04-03T09:46:40.613Z,63.15
2023-04-03T09:51:42.424Z,62.17
2023-04-03T09:56:51.993Z,60.51
2023-04-03T10:02:04.277Z,60.46
2023-04-03T10:07:30.356Z,61.36
2023-04-03T10:12:32.081Z,59.33
2023-04-03T10:18:06.373Z,58.89
2023-04-03T10:23:41.496Z,58.71
2023-04-03T10:28:54.925Z,58.31
2023-04-03T10:34:40.678Z,57.78
2023-04-03T10:39:59.934Z,57.69
2023-04-03T10:45:25.578Z,56.14
2023-04-03T10:50:40.208Z,56.61
2023-04-03T10:56:00.221Z,55.16
2023-04-03T11:01:10.164Z,54.27
2023-04-03T11:06:15.779Z,54.01
2023-04-03T11:11:22.634Z,56.03
2023-04-03T11:16:29.542Z,55.46
2023-04-03T11:21:48.206Z,51.70
2023-04-03T11:26:52.420Z,52.96
2023-04-03T11:32:06.604Z,52.91
2023-04-03T11:37:18.617Z,53.25
2023-04-03T11:42:20.783Z,52.18
2023-04-03T11:48:04.859Z,52.76
2023-04-03T11:53:14.835Z,52.31
2023-04-03T11:58:21.234Z,51.75
2023-04-03T12:03:29.791Z,52.79
2023-04-03T12:08:34.716Z,50.76
2023-04-03T12:13:37.271Z,51.80
2023-04-03T12:18:54.686Z,48.78
2023-04-03T12:24:04.193Z,45.75
2023-04-03T12:29:37.857Z,49.06
2023-04-03T12:34:57.389Z,45.83
2023-04-03T12:40:29.178Z,45.11
2023-04-03T12:45:43.906Z,45.85
2023-04-03T12:50:48.437Z,46.82
2023-04-03T12:55:55.463Z,46.56
2023-04-03T13:01:10.880Z,46.36
2023-04-03T13:06:19.920Z,43.49
2023-04-03T13:11:23.430Z,43.92
2023-04-03T13:16:25.860Z,41.92
2023-04-03T13:21:30.526Z,43.90
2023-04-03T13:26:34.198Z,45.50
2023-04-03T13:31:38.027Z,43.01
2023-04-03T13:36:44.958Z,44.40
2023-04-03T13:41:49.638Z,43.71
2023-04-03T13:47:01.805Z,43.12
2023-04-03T13:52:24.374Z,44.10
2023-04-03T13:57:26.678Z,44.81
2023-04-03T14:02:34.302Z,43.08
2023-04-03T14:07:36.344Z,43.53
2023-04-03T14:12:41.300Z,44.45
2023-04-03T14:17:43.697Z,44.46
2023-04-03T14:22:45.653Z,44.74
2023-04-03T14:27:49.964Z,42.61
2023-04-03T14:32:52.895Z,42.87
2023-04-03T14:37:55.895Z,43.21
2023-04-03T14:42:58.361Z,44.48
2023-04-03T14:48:00.396Z,43.24
2023-04-03T14:53:02.535Z,43.35
2023-04-03T14:58:04.242Z,42.63
2023-04-03T15:03:06.193Z,43.23
2023-04-03T15:08:18.920Z,42.52
2023-04-03T15:13:21.446Z,44.19
2023-04-03T15:18:27.943Z,45.96
2023-04-03T15:23:30.962Z,43.97
2023-04-03T15:28:41.608Z,43.98
2023-04-03T15:33:43.415Z,42.62
2023-04-03T15:38:45.280Z,43.00
2023-04-03T15:43:47.008Z,43.30
2023-04-03T15:48:50.525Z,42.97
2023-04-03T15:53:52.214Z,43.36
2023-04-03T15:58:54.179Z,43.51
2023-04-03T16:03:55.936Z,44.45
2023-04-03T16:08:58.917Z,44.39
2023-04-03T16:14:00.722Z,43.86
2023-04-03T16:19:02.435Z,42.94
2023-04-03T16:24:04.414Z,44.16
2023-04-03T16:29:06.180Z,44.53
2023-04-03T16:34:07.865Z,43.94
2023-04-03T16:39:10.870Z,44.57
2023-04-03T16:44:12.660Z,44.97
2023-04-03T16:49:14.533Z,45.74
2023-04-03T16:54:16.241Z,46.16
2023-04-03T16:59:18.207Z,45.99
2023-04-03T17:04:20.488Z,46.25
2023-04-03T17:09:23.643Z,46.62
2023-04-03T17:14:25.400Z,47.26
2023-04-03T17:19:28.798Z,47.63
2023-04-03T17:24:30.749Z,48.54
2023-04-03T17:29:32.427Z,48.83
2023-04-03T17:34:35.971Z,48.62
2023-04-03T17:39:37.649Z,49.01
2023-04-03T17:44:39.755Z,49.45
2023-04-03T17:49:41.594Z,49.33
2023-04-03T17:54:43.377Z,49.71
2023-04-03T17:59:45.416Z,49.84
2023-04-03T18:04:47.136Z,49.89
2023-04-03T18:09:50.878Z,49.77
2023-04-03T18:14:52.973Z,49.91
2023-04-03T18:19:55.166Z,50.33
2023-04-03T18:24:58.203Z,50.88
2023-04-03T18:30:02.972Z,50.72
2023-04-03T18:35:05.821Z,50.97
2023-04-03T18:40:07.871Z,51.35
2023-04-03T18:45:11.904Z,51.28
2023-04-03T18:50:13.939Z,51.89
2023-04-03T18:55:18.853Z,51.98
2023-04-03T19:00:20.704Z,52.09
2023-04-03T19:05:23.903Z,52.44
2023-04-03T19:10:27.341Z,52.53
2023-04-03T19:15:29.365Z,52.67
2023-04-03T19:20:34.983Z,53.01
2023-04-03T19:25:38.124Z,52.90
2023-04-03T19:30:40.924Z,52.70
2023-04-03T19:35:43.002Z,53.15
2023-04-03T19:40:45.657Z,52.97
2023-04-03T19:45:48.160Z,52.90
2023-04-03T19:50:50.364Z,52.56
2023-04-03T19:55:52.542Z,52.84
2023-04-03T20:00:55.370Z,53.14
2023-04-03T20:05:58.267Z,53.07
2023-04-03T20:11:00.693Z,53.64
2023-04-03T20:16:04.731Z,53.35
2023-04-03T20:21:07.755Z,53.55
2023-04-03T20:26:13.182Z,53.73
2023-04-03T20:31:18.488Z,53.74
2023-04-03T20:36:21.781Z,53.78
2023-04-03T20:41:23.801Z,54.30
2023-04-03T20:46:38.289Z,54.69
2023-04-03T20:51:44.321Z,54.48
2023-04-03T20:56:49.559Z,54.91
2023-04-03T21:01:51.336Z,54.83
2023-04-03T21:07:31.025Z,55.28
2023-04-03T21:13:10.139Z,55.61
2023-04-03T21:18:12.399Z,55.70
2023-04-03T21:23:14.463Z,55.89
2023-04-03T21:28:18.434Z,56.05
2023-04-03T21:33:20.472Z,56.17
2023-04-03T21:38:22.237Z,56.57
2023-04-03T21:43:24.815Z,56.74
2023-04-03T21:48:30.919Z,56.83
2023-04-03T21:53:36.054Z,57.03
2023-04-03T21:58:37.850Z,56.88
2023-04-03T22:03:41.416Z,57.22
2023-04-03T22:08:43.786Z,57.79
2023-04-03T22:13:45.751Z,58.08
2023-04-03T22:18:47.444Z,58.29
2023-04-03T22:23:49.278Z,58.58
2023-04-03T22:28:51.405Z,58.46
2023-04-03T22:33:53.118Z,58.56
2023-04-03T22:38:55.178Z,58.46
2023-04-03T22:43:57.180Z,58.68
2023-04-03T22:48:58.889Z,58.49
2023-04-03T22:54:00.576Z,58.85
2023-04-03T22:59:02.361Z,59.06
2023-04-03T23:04:04.373Z,59.20
2023-04-03T23:09:06.109Z,59.21
2023-04-03T23:14:07.851Z,59.34
2023-04-03T23:19:09.686Z,59.40
2023-04-03T23:24:11.662Z,59.76
2023-04-03T23:29:13.521Z,60.02
2023-04-03T23:34:15.337Z,60.07
2023-04-03T23:39:19.808Z,60.30
2023-04-03T23:44:21.786Z,60.70
2023-04-03T23:49:23.642Z,60.90
2023-04-03T23:54:25.453Z,60.82
2023-04-03T23:59:28.063Z,60.87
